createdAt,value
2023-02-03T00:00:32.582Z,7.80
2023-02-03T00:01:32.686Z,7.80
2023-02-03T00:02:32.785Z,7.81
2023-02-03T00:03:32.958Z,7.80
2023-02-03T00:04:33.001Z,7.80
2023-02-03T00:05:33.141Z,7.80
2023-02-03T00:06:33.213Z,7.80
2023-02-03T00:07:33.306Z,7.80
2023-02-03T00:08:33.429Z,7.80
2023-02-03T00:09:33.570Z,7.80
2023-02-03T00:10:33.639Z,7.79
2023-02-03T00:11:33.737Z,7.79
2023-02-03T00:12:33.852Z,7.78
2023-02-03T00:13:34.060Z,7.75
2023-02-03T00:14:34.093Z,7.73
2023-02-03T00:15:34.193Z,7.73
2023-02-03T00:16:34.381Z,7.73
2023-02-03T00:17:34.419Z,7.73
2023-02-03T00:18:34.570Z,7.72
2023-02-03T00:19:34.734Z,7.71
2023-02-03T00:20:34.790Z,7.71
2023-02-03T00:21:34.885Z,7.71
2023-02-03T00:22:34.985Z,7.70
2023-02-03T00:23:35.103Z,7.70
2023-02-03T00:24:35.251Z,7.69
2023-02-03T00:25:35.347Z,7.69
2023-02-03T00:26:35.399Z,7.69
2023-02-03T00:27:35.631Z,7.69
2023-02-03T00:28:35.640Z,7.70
2023-02-03T00:29:35.796Z,7.70
2023-02-03T00:30:35.869Z,7.71
2023-02-03T00:31:36.141Z,7.71
2023-02-03T00:32:36.127Z,7.70
2023-02-03T00:33:36.177Z,7.69
2023-02-03T00:34:36.318Z,7.69
2023-02-03T00:35:36.432Z,7.69
2023-02-03T00:36:36.595Z,7.69
2023-02-03T00:37:36.655Z,7.71
2023-02-03T00:38:36.898Z,7.72
2023-02-03T00:39:36.875Z,7.72
2023-02-03T00:40:37.012Z,7.73
2023-02-03T00:41:37.092Z,7.73
2023-02-03T00:42:37.364Z,7.73
2023-02-03T00:43:37.304Z,7.73
2023-02-03T00:44:37.522Z,7.74
2023-02-03T00:45:37.567Z,7.75
2023-02-03T00:46:37.610Z,7.76
2023-02-03T00:47:37.726Z,7.76
2023-02-03T00:48:37.836Z,7.77
2023-02-03T00:49:38.042Z,7.78
2023-02-03T00:50:38.065Z,7.79
2023-02-03T00:51:38.175Z,7.79
2023-02-03T00:52:38.287Z,7.78
2023-02-03T00:53:38.411Z,7.78
2023-02-03T00:54:38.633Z,7.78
2023-02-03T00:55:38.632Z,7.78
2023-02-03T00:56:38.800Z,7.80
2023-02-03T00:57:38.839Z,7.80
2023-02-03T00:58:38.943Z,7.81
2023-02-03T00:59:39.156Z,7.80
2023-02-03T01:00:39.217Z,7.81
2023-02-03T01:01:39.335Z,7.82
2023-02-03T01:02:39.516Z,7.83
2023-02-03T01:03:39.555Z,7.83
2023-02-03T01:04:39.707Z,7.81
2023-02-03T01:05:39.830Z,7.80
2023-02-03T01:06:39.934Z,7.79
2023-02-03T01:07:40.041Z,7.79
2023-02-03T01:08:40.149Z,7.80
2023-02-03T01:09:40.292Z,7.81
2023-02-03T01:10:40.369Z,7.81
2023-02-03T01:11:40.473Z,7.82
2023-02-03T01:12:40.596Z,7.80
2023-02-03T01:13:40.688Z,7.80
2023-02-03T01:14:40.918Z,7.82
2023-02-03T01:15:40.969Z,7.83
2023-02-03T01:16:41.057Z,7.82
2023-02-03T01:17:41.134Z,7.82
2023-02-03T01:18:41.246Z,7.81
2023-02-03T01:19:41.550Z,7.81
2023-02-03T01:20:41.455Z,7.80
2023-02-03T01:21:41.546Z,7.80
2023-02-03T01:22:41.664Z,7.79
2023-02-03T01:23:41.777Z,7.80
2023-02-03T01:24:41.956Z,7.80
2023-02-03T01:25:42.093Z,7.80
2023-02-03T01:26:42.111Z,7.81
2023-02-03T01:27:42.249Z,7.82
2023-02-03T01:28:42.371Z,7.83
2023-02-03T01:29:42.435Z,7.83
2023-02-03T01:30:42.730Z,7.84
2023-02-03T01:31:42.890Z,7.84
2023-02-03T01:32:42.805Z,7.84
2023-02-03T01:33:42.910Z,7.84
2023-02-03T01:34:43.080Z,7.84
2023-02-03T01:35:43.146Z,7.85
2023-02-03T01:36:43.362Z,7.85
2023-02-03T01:37:43.364Z,7.85
2023-02-03T01:38:43.461Z,7.85
2023-02-03T01:39:43.572Z,7.86
2023-02-03T01:40:43.684Z,7.86
2023-02-03T01:41:43.843Z,7.86
2023-02-03T01:42:43.892Z,7.86
2023-02-03T01:43:44.004Z,7.87
2023-02-03T01:44:44.114Z,7.88
2023-02-03T01:45:44.271Z,7.88
2023-02-03T01:46:44.468Z,7.88
2023-02-03T01:47:44.482Z,7.88
2023-02-03T01:48:44.588Z,7.90
2023-02-03T01:49:44.699Z,7.92
2023-02-03T01:50:44.810Z,7.93
2023-02-03T01:51:44.968Z,7.94
2023-02-03T01:52:45.195Z,7.94
2023-02-03T01:53:45.149Z,7.95
2023-02-03T01:54:45.407Z,7.97
2023-02-03T01:55:45.422Z,7.97
2023-02-03T01:56:45.567Z,7.97
2023-02-03T01:57:45.590Z,7.98
2023-02-03T01:58:45.676Z,7.98
2023-02-03T01:59:45.805Z,7.99
2023-02-03T02:00:46.055Z,8.00
2023-02-03T02:01:46.345Z,8.00
2023-02-03T02:02:46.175Z,8.00
2023-02-03T02:03:46.257Z,8.01
2023-02-03T02:04:46.353Z,8.01
2023-02-03T02:05:46.477Z,8.00
2023-02-03T02:06:46.575Z,7.99
2023-02-03T02:07:46.684Z,7.98
2023-02-03T02:08:46.805Z,7.97
2023-02-03T02:09:46.933Z,7.98
2023-02-03T02:10:47.057Z,8.00
2023-02-03T02:11:47.245Z,8.00
2023-02-03T02:12:47.261Z,7.99
2023-02-03T02:13:47.363Z,7.99
2023-02-03T02:14:47.466Z,7.98
2023-02-03T02:15:47.651Z,7.98
2023-02-03T02:16:47.783Z,7.96
2023-02-03T02:17:47.784Z,7.96
2023-02-03T02:18:47.906Z,7.97
2023-02-03T02:19:48.043Z,7.96
2023-02-03T02:20:48.112Z,7.95
2023-02-03T02:21:48.345Z,7.95
2023-02-03T02:22:48.332Z,7.95
2023-02-03T02:23:48.519Z,7.95
2023-02-03T02:24:48.574Z,7.95
2023-02-03T02:25:48.644Z,7.94
2023-02-03T02:26:48.811Z,7.93
2023-02-03T02:27:48.976Z,7.92
2023-02-03T02:28:48.990Z,7.91
2023-02-03T02:29:49.140Z,7.91
2023-02-03T02:30:49.473Z,7.92
2023-02-03T02:31:49.546Z,7.92
2023-02-03T02:32:49.447Z,7.92
2023-02-03T02:33:49.581Z,7.92
2023-02-03T02:34:49.684Z,7.92
2023-02-03T02:35:49.811Z,7.93
2023-02-03T02:36:49.996Z,7.92
2023-02-03T02:37:50.077Z,7.92
2023-02-03T02:38:51.127Z,7.92
2023-02-03T02:39:50.228Z,7.92
2023-02-03T02:40:50.346Z,7.92
2023-02-03T02:41:50.462Z,7.92
2023-02-03T02:42:51.628Z,7.93
2023-02-03T02:43:50.694Z,7.93
2023-02-03T02:44:50.791Z,7.93
2023-02-03T02:45:50.894Z,7.94
2023-02-03T02:46:50.987Z,7.95
2023-02-03T02:47:51.273Z,7.94
2023-02-03T02:48:51.336Z,7.94
2023-02-03T02:49:51.407Z,7.93
2023-02-03T02:50:51.471Z,7.93
2023-02-03T02:51:51.576Z,7.92
2023-02-03T02:52:51.680Z,7.92
2023-02-03T02:53:51.805Z,7.93
2023-02-03T02:54:51.925Z,7.94
2023-02-03T02:55:52.026Z,7.94
2023-02-03T02:56:52.208Z,7.94
2023-02-03T02:57:52.254Z,7.94
2023-02-03T02:58:52.419Z,7.94
2023-02-03T02:59:52.524Z,7.94
2023-02-03T03:00:52.592Z,7.95
2023-02-03T03:01:52.750Z,7.95
2023-02-03T03:02:52.789Z,7.95
2023-02-03T03:03:52.914Z,7.93
2023-02-03T03:04:53.104Z,7.92
2023-02-03T03:05:53.118Z,7.93
2023-02-03T03:06:53.213Z,7.93
2023-02-03T03:07:53.334Z,7.93
2023-02-03T03:08:53.424Z,7.93
2023-02-03T03:09:53.710Z,7.95
2023-02-03T03:10:53.653Z,7.95
2023-02-03T03:11:53.768Z,7.95
2023-02-03T03:12:53.896Z,7.95
2023-02-03T03:13:53.995Z,7.95
2023-02-03T03:14:54.240Z,7.96
2023-02-03T03:15:54.293Z,7.96
2023-02-03T03:16:54.420Z,7.95
2023-02-03T03:17:54.450Z,7.95
2023-02-03T03:18:54.549Z,7.96
2023-02-03T03:19:54.840Z,7.97
2023-02-03T03:20:54.780Z,7.97
2023-02-03T03:21:54.887Z,7.97
2023-02-03T03:22:54.988Z,7.97
2023-02-03T03:23:55.117Z,7.96
2023-02-03T03:24:55.317Z,7.95
2023-02-03T03:25:55.347Z,7.94
2023-02-03T03:26:55.437Z,7.94
2023-02-03T03:27:55.617Z,7.93
2023-02-03T03:28:55.657Z,7.94
2023-02-03T03:29:55.840Z,7.94
2023-02-03T03:30:56.044Z,7.92
2023-02-03T03:31:56.100Z,7.92
2023-02-03T03:32:56.150Z,7.92
2023-02-03T03:33:56.336Z,7.93
2023-02-03T03:34:57.439Z,7.94
2023-02-03T03:35:56.497Z,7.93
2023-02-03T03:36:56.644Z,7.93
2023-02-03T03:37:56.713Z,7.92
2023-02-03T03:38:56.851Z,7.92
2023-02-03T03:39:57.145Z,7.91
2023-02-03T03:40:57.060Z,7.90
2023-02-03T03:41:57.242Z,7.89
2023-02-03T03:42:57.265Z,7.88
2023-02-03T03:43:57.375Z,7.89
2023-02-03T03:44:57.541Z,7.91
2023-02-03T03:45:57.589Z,7.91
2023-02-03T03:46:57.709Z,7.91
2023-02-03T03:47:57.840Z,7.91
2023-02-03T03:48:57.938Z,7.91
2023-02-03T03:49:58.121Z,7.91
2023-02-03T03:50:58.168Z,7.91
2023-02-03T03:51:58.250Z,7.91
2023-02-03T03:52:58.346Z,7.91
2023-02-03T03:53:58.461Z,7.91
2023-02-03T03:54:58.689Z,7.92
2023-02-03T03:55:58.707Z,7.91
2023-02-03T03:56:58.870Z,7.90
2023-02-03T03:57:58.954Z,7.90
2023-02-03T03:58:59.112Z,7.89
2023-02-03T03:59:59.289Z,7.88
2023-02-03T04:00:59.279Z,7.87
2023-02-03T04:01:59.478Z,7.85
2023-02-03T04:02:59.573Z,7.84
2023-02-03T04:03:59.588Z,7.82
2023-02-03T04:04:59.729Z,7.81
2023-02-03T04:05:59.830Z,7.80
2023-02-03T04:06:59.957Z,7.79
2023-02-03T04:08:00.089Z,7.80
2023-02-03T04:09:00.218Z,7.81
2023-02-03T04:10:00.404Z,7.80
2023-02-03T04:11:00.415Z,7.81
2023-02-03T04:12:00.526Z,7.80
2023-02-03T04:13:00.647Z,7.79
2023-02-03T04:14:00.747Z,7.78
2023-02-03T04:15:01.025Z,7.78
2023-02-03T04:16:01.015Z,7.78
2023-02-03T04:17:01.185Z,7.78
2023-02-03T04:18:01.276Z,7.79
2023-02-03T04:19:01.327Z,7.79
2023-02-03T04:20:01.521Z,7.81
2023-02-03T04:21:01.567Z,7.81
2023-02-03T04:22:01.678Z,7.80
2023-02-03T04:23:01.782Z,7.80
2023-02-03T04:24:01.892Z,7.79
2023-02-03T04:25:02.016Z,7.80
2023-02-03T04:26:02.135Z,7.81
2023-02-03T04:27:04.865Z,7.81
2023-02-03T04:28:02.394Z,7.80
2023-02-03T04:29:02.462Z,7.79
2023-02-03T04:30:02.602Z,7.79
2023-02-03T04:31:02.774Z,7.78
2023-02-03T04:32:02.769Z,7.79
2023-02-03T04:33:02.984Z,7.80
2023-02-03T04:34:03.029Z,7.82
2023-02-03T04:35:03.099Z,7.82
2023-02-03T04:36:03.209Z,7.82
2023-02-03T04:37:03.393Z,7.82
2023-02-03T04:38:03.555Z,7.82
2023-02-03T04:39:03.649Z,7.82
2023-02-03T04:40:03.684Z,7.82
2023-02-03T04:41:03.790Z,7.82
2023-02-03T04:42:03.899Z,7.83
2023-02-03T04:43:04.108Z,7.84
2023-02-03T04:44:04.194Z,7.84
2023-02-03T04:45:04.235Z,7.84
2023-02-03T04:46:04.441Z,7.85
2023-02-03T04:47:04.492Z,7.85
2023-02-03T04:48:04.621Z,7.85
2023-02-03T04:49:04.755Z,7.85
2023-02-03T04:50:04.808Z,7.85
2023-02-03T04:51:04.965Z,7.85
2023-02-03T04:52:05.017Z,7.86
2023-02-03T04:53:05.137Z,7.87
2023-02-03T04:54:05.247Z,7.88
2023-02-03T04:55:05.365Z,7.90
2023-02-03T04:56:05.571Z,7.91
2023-02-03T04:57:05.576Z,7.91
2023-02-03T04:58:05.701Z,7.91
2023-02-03T04:59:05.825Z,7.92
2023-02-03T05:00:05.928Z,7.92
2023-02-03T05:01:06.209Z,7.92
2023-02-03T05:02:06.157Z,7.92
2023-02-03T05:03:06.422Z,7.92
2023-02-03T05:04:06.370Z,7.92
2023-02-03T05:05:06.476Z,7.93
2023-02-03T05:06:06.714Z,7.94
2023-02-03T05:07:06.722Z,7.94
2023-02-03T05:08:06.847Z,7.93
2023-02-03T05:09:06.963Z,7.92
2023-02-03T05:10:07.121Z,7.91
2023-02-03T05:11:07.295Z,7.91
2023-02-03T05:12:07.400Z,7.93
2023-02-03T05:13:07.421Z,7.92
2023-02-03T05:14:07.510Z,7.90
2023-02-03T05:15:07.622Z,7.90
2023-02-03T05:16:07.966Z,7.91
2023-02-03T05:17:07.833Z,7.92
2023-02-03T05:18:07.959Z,7.92
2023-02-03T05:19:08.062Z,7.92
2023-02-03T05:20:08.199Z,7.91
2023-02-03T05:21:08.330Z,7.90
2023-02-03T05:22:08.432Z,7.90
2023-02-03T05:23:08.550Z,7.89
2023-02-03T05:24:08.645Z,7.89
2023-02-03T05:25:08.749Z,7.90
2023-02-03T05:26:08.941Z,7.91
2023-02-03T05:27:08.981Z,7.90
2023-02-03T05:28:09.142Z,7.90
2023-02-03T05:29:09.225Z,7.90
2023-02-03T05:30:09.334Z,7.90
2023-02-03T05:31:09.508Z,7.89
2023-02-03T05:32:09.667Z,7.88
2023-02-03T05:33:09.650Z,7.89
2023-02-03T05:34:09.810Z,7.89
2023-02-03T05:35:09.920Z,7.89
2023-02-03T05:36:10.027Z,7.90
2023-02-03T05:37:10.189Z,7.89
2023-02-03T05:38:10.258Z,7.88
2023-02-03T05:39:10.352Z,7.89
2023-02-03T05:40:10.459Z,7.88
2023-02-03T05:41:10.628Z,7.88
2023-02-03T05:42:10.664Z,7.88
2023-02-03T05:43:10.775Z,7.89
2023-02-03T05:44:10.915Z,7.89
2023-02-03T05:45:10.997Z,7.89
2023-02-03T05:46:11.211Z,7.89
2023-02-03T05:47:11.223Z,7.88
2023-02-03T05:48:11.324Z,7.88
2023-02-03T05:49:11.460Z,7.87
2023-02-03T05:50:11.571Z,7.86
2023-02-03T05:51:11.802Z,7.85
2023-02-03T05:52:11.829Z,7.85
2023-02-03T05:53:11.891Z,7.85
2023-02-03T05:54:11.999Z,7.84
2023-02-03T05:55:12.115Z,7.84
2023-02-03T05:56:12.274Z,7.84
2023-02-03T05:57:12.357Z,7.82
2023-02-03T05:58:12.451Z,7.81
2023-02-03T05:59:12.585Z,7.80
2023-02-03T06:00:12.684Z,7.81
2023-02-03T06:01:12.800Z,7.83
2023-02-03T06:02:12.908Z,7.82
2023-02-03T06:03:13.085Z,7.81
2023-02-03T06:04:13.163Z,7.81
2023-02-03T06:05:13.227Z,7.80
2023-02-03T06:06:13.333Z,7.79
2023-02-03T06:07:13.442Z,7.78
2023-02-03T06:08:13.579Z,7.78
2023-02-03T06:09:13.651Z,7.79
2023-02-03T06:10:13.760Z,7.80
2023-02-03T06:11:13.941Z,7.80
2023-02-03T06:12:14.007Z,7.79
2023-02-03T06:13:14.106Z,7.78
2023-02-03T06:14:14.243Z,7.77
2023-02-03T06:15:14.339Z,7.78
2023-02-03T06:16:14.558Z,7.79
2023-02-03T06:17:14.574Z,7.79
2023-02-03T06:18:14.689Z,7.79
2023-02-03T06:19:16.336Z,7.78
2023-02-03T06:20:14.900Z,7.77
2023-02-03T06:21:15.089Z,7.76
2023-02-03T06:22:15.143Z,7.77
2023-02-03T06:23:15.244Z,7.77
2023-02-03T06:24:15.363Z,7.78
2023-02-03T06:25:15.481Z,7.78
2023-02-03T06:26:15.603Z,7.79
2023-02-03T06:27:15.705Z,7.80
2023-02-03T06:28:15.864Z,7.80
2023-02-03T06:29:15.912Z,7.80
2023-02-03T06:30:16.015Z,7.81
2023-02-03T06:31:16.287Z,7.80
2023-02-03T06:32:16.323Z,7.79
2023-02-03T06:33:16.402Z,7.79
2023-02-03T06:34:16.481Z,7.78
2023-02-03T06:35:16.601Z,7.77
2023-02-03T06:36:16.729Z,7.77
2023-02-03T06:37:16.849Z,7.77
2023-02-03T06:38:16.957Z,7.78
2023-02-03T06:39:17.068Z,7.78
2023-02-03T06:40:17.179Z,7.78
2023-02-03T06:41:17.446Z,7.79
2023-02-03T06:42:17.385Z,7.78
2023-02-03T06:43:17.528Z,7.78
2023-02-03T06:44:17.706Z,7.78
2023-02-03T06:45:17.759Z,7.78
2023-02-03T06:46:17.973Z,7.79
2023-02-03T06:47:18.057Z,7.80
2023-02-03T06:48:18.195Z,7.80
2023-02-03T06:49:18.198Z,7.80
2023-02-03T06:50:18.309Z,7.81
2023-02-03T06:51:18.413Z,7.81
2023-02-03T06:52:18.679Z,7.80
2023-02-03T06:53:18.647Z,7.79
2023-02-03T06:54:18.740Z,7.79
2023-02-03T06:55:18.858Z,7.79
2023-02-03T06:56:18.946Z,7.81
2023-02-03T06:57:19.186Z,7.81
2023-02-03T06:58:19.172Z,7.81
2023-02-03T06:59:19.294Z,7.82
2023-02-03T07:00:19.623Z,7.82
2023-02-03T07:01:19.526Z,7.81
2023-02-03T07:02:19.650Z,7.82
2023-02-03T07:03:19.723Z,7.83
2023-02-03T07:04:19.826Z,7.83
2023-02-03T07:05:19.953Z,7.84
2023-02-03T07:06:20.068Z,7.84
2023-02-03T07:07:20.336Z,7.84
2023-02-03T07:08:20.300Z,7.84
2023-02-03T07:09:20.427Z,7.85
2023-02-03T07:10:20.531Z,7.86
2023-02-03T07:11:20.660Z,7.86
2023-02-03T07:12:20.877Z,7.87
2023-02-03T07:13:20.881Z,7.87
2023-02-03T07:14:20.986Z,7.87
2023-02-03T07:15:21.095Z,7.87
2023-02-03T07:16:21.303Z,7.86
2023-02-03T07:17:21.651Z,7.87
2023-02-03T07:18:45.621Z,7.88
2023-02-03T07:19:22.583Z,7.88
2023-02-03T07:20:21.721Z,7.89
2023-02-03T07:21:21.794Z,7.90
2023-02-03T07:22:21.951Z,7.91
2023-02-03T07:23:22.018Z,7.92
2023-02-03T07:24:22.140Z,7.92
2023-02-03T07:25:23.344Z,7.94
2023-02-03T07:26:22.380Z,7.95
2023-02-03T07:27:22.539Z,7.95
2023-02-03T07:28:22.614Z,7.94
2023-02-03T07:29:22.723Z,7.94
2023-02-03T07:30:22.814Z,7.96
2023-02-03T07:31:23.026Z,7.97
2023-02-03T07:32:23.095Z,7.97
2023-02-03T07:33:23.187Z,7.96
2023-02-03T07:34:23.239Z,7.95
2023-02-03T07:35:23.406Z,7.96
2023-02-03T07:36:23.476Z,7.97
2023-02-03T07:37:23.716Z,7.98
2023-02-03T07:38:23.694Z,7.98
2023-02-03T07:39:23.793Z,7.98
2023-02-03T07:40:23.965Z,7.98
2023-02-03T07:41:24.009Z,7.97
2023-02-03T07:42:24.149Z,7.96
2023-02-03T07:43:24.210Z,7.97
2023-02-03T07:44:24.323Z,7.99
2023-02-03T07:45:24.454Z,7.99
2023-02-03T07:46:24.611Z,7.99
2023-02-03T07:47:24.769Z,7.99
2023-02-03T07:48:24.784Z,8.00
2023-02-03T07:49:24.900Z,7.99
2023-02-03T07:50:25.165Z,7.98
2023-02-03T07:51:25.098Z,7.98
2023-02-03T07:52:25.385Z,7.98
2023-02-03T07:53:25.336Z,8.00
2023-02-03T07:54:25.447Z,8.01
2023-02-03T07:55:25.590Z,8.02
2023-02-03T07:56:25.779Z,8.00
2023-02-03T07:57:25.783Z,7.99
2023-02-03T07:58:25.920Z,8.00
2023-02-03T07:59:26.023Z,8.00
2023-02-03T08:00:26.491Z,8.02
2023-02-03T08:01:26.375Z,8.04
2023-02-03T08:02:26.357Z,8.05
2023-02-03T08:03:26.450Z,8.04
2023-02-03T08:04:26.565Z,8.03
2023-02-03T08:05:26.691Z,8.03
2023-02-03T08:06:26.763Z,8.03
2023-02-03T08:07:27.049Z,8.03
2023-02-03T08:08:26.985Z,8.03
2023-02-03T08:09:27.087Z,8.03
2023-02-03T08:10:27.461Z,8.04
2023-02-03T08:11:27.338Z,8.07
2023-02-03T08:12:27.647Z,8.09
2023-02-03T08:13:27.532Z,8.11
2023-02-03T08:14:27.627Z,8.10
2023-02-03T08:15:27.789Z,8.09
2023-02-03T08:16:27.877Z,8.08
2023-02-03T08:17:28.033Z,8.08
2023-02-03T08:18:28.560Z,8.09
2023-02-03T08:19:28.189Z,8.10
2023-02-03T08:20:28.528Z,8.10
2023-02-03T08:21:28.454Z,8.09
2023-02-03T08:22:28.730Z,8.08
2023-02-03T08:23:28.686Z,8.08
2023-02-03T08:24:28.783Z,8.09
2023-02-03T08:25:28.892Z,8.11
2023-02-03T08:26:29.015Z,8.11
2023-02-03T08:27:29.213Z,8.11
2023-02-03T08:28:29.215Z,8.10
2023-02-03T08:29:29.323Z,8.08
2023-02-03T08:30:30.001Z,8.06
2023-02-03T08:31:29.714Z,8.05
2023-02-03T08:32:29.766Z,8.04
2023-02-03T08:33:29.786Z,8.02
2023-02-03T08:34:29.876Z,8.02
2023-02-03T08:35:30.051Z,8.02
2023-02-03T08:36:30.217Z,8.04
2023-02-03T08:37:30.253Z,8.04
2023-02-03T08:38:30.415Z,8.04
2023-02-03T08:39:30.480Z,8.04
2023-02-03T08:40:30.901Z,8.03
2023-02-03T08:41:30.720Z,8.02
2023-02-03T08:42:30.824Z,8.01
2023-02-03T08:43:30.923Z,8.01
2023-02-03T08:44:31.038Z,8.01
2023-02-03T08:45:31.164Z,8.01
2023-02-03T08:46:31.331Z,8.01
2023-02-03T08:47:31.349Z,8.01
2023-02-03T08:48:31.454Z,8.01
2023-02-03T08:49:31.586Z,8.03
2023-02-03T08:50:31.899Z,8.03
2023-02-03T08:51:31.856Z,8.03
2023-02-03T08:52:31.933Z,8.04
2023-02-03T08:53:32.083Z,8.05
2023-02-03T08:54:32.121Z,8.06
2023-02-03T08:55:32.257Z,8.07
2023-02-03T08:56:32.366Z,8.08
2023-02-03T08:57:32.449Z,8.08
2023-02-03T08:58:32.643Z,8.08
2023-02-03T08:59:32.689Z,8.08
2023-02-03T09:00:32.797Z,8.09
2023-02-03T09:01:32.913Z,8.08
2023-02-03T09:02:33.027Z,8.07
2023-02-03T09:03:33.202Z,8.07
2023-02-03T09:04:33.348Z,8.08
2023-02-03T09:05:33.384Z,8.09
2023-02-03T09:06:33.473Z,8.10
2023-02-03T09:07:33.595Z,8.12
2023-02-03T09:08:33.745Z,8.12
2023-02-03T09:09:33.842Z,8.12
2023-02-03T09:10:33.936Z,8.12
2023-02-03T09:11:34.063Z,8.12
2023-02-03T09:12:34.252Z,8.12
2023-02-03T09:13:34.298Z,8.11
2023-02-03T09:14:34.394Z,8.11
2023-02-03T09:15:34.502Z,8.11
2023-02-03T09:16:34.663Z,8.11
2023-02-03T09:17:34.769Z,8.11
2023-02-03T09:18:34.931Z,8.11
2023-02-03T09:19:36.522Z,8.10
2023-02-03T09:20:35.086Z,8.09
2023-02-03T09:21:39.268Z,8.08
2023-02-03T09:22:36.295Z,8.06
2023-02-03T09:23:35.498Z,8.04
2023-02-03T09:24:35.565Z,8.00
2023-02-03T09:25:35.681Z,7.95
2023-02-03T09:26:35.800Z,7.90
2023-02-03T09:27:35.887Z,7.84
2023-02-03T09:28:36.122Z,7.80
2023-02-03T09:29:36.126Z,7.77
2023-02-03T09:30:36.280Z,7.74
2023-02-03T09:31:36.392Z,7.73
2023-02-03T09:32:36.457Z,7.71
2023-02-03T09:33:36.654Z,7.69
2023-02-03T09:34:36.662Z,7.66
2023-02-03T09:35:36.808Z,7.64
2023-02-03T09:36:36.911Z,7.60
2023-02-03T09:37:37.112Z,7.57
2023-02-03T09:38:37.170Z,7.55
2023-02-03T09:39:37.218Z,7.54
2023-02-03T09:40:37.385Z,7.53
2023-02-03T09:41:37.489Z,7.52
2023-02-03T09:42:37.639Z,7.49
2023-02-03T09:43:37.781Z,7.46
2023-02-03T09:44:37.812Z,7.45
2023-02-03T09:45:37.981Z,7.44
2023-02-03T09:46:38.053Z,7.42
2023-02-03T09:47:38.142Z,7.40
2023-02-03T09:48:38.304Z,7.40
2023-02-03T09:49:38.495Z,7.41
2023-02-03T09:50:38.533Z,7.39
2023-02-03T09:51:38.719Z,7.37
2023-02-03T09:52:40.429Z,7.36
2023-02-03T09:53:38.939Z,7.34
2023-02-03T09:54:39.148Z,7.33
2023-02-03T09:55:39.151Z,7.32
2023-02-03T09:56:39.282Z,7.32
2023-02-03T09:57:39.413Z,7.31
2023-02-03T09:58:39.536Z,7.31
2023-02-03T09:59:39.678Z,7.31
2023-02-03T10:00:39.771Z,7.32
2023-02-03T10:01:39.898Z,7.33
2023-02-03T10:02:40.068Z,7.33
2023-02-03T10:03:40.085Z,7.32
2023-02-03T10:04:40.239Z,7.32
2023-02-03T10:05:40.337Z,7.31
2023-02-03T10:06:40.462Z,7.30
2023-02-03T10:07:40.559Z,7.30
2023-02-03T10:08:40.673Z,7.29
2023-02-03T10:09:40.832Z,7.29
2023-02-03T10:10:40.867Z,7.29
2023-02-03T10:11:41.025Z,7.28
2023-02-03T10:12:41.213Z,7.25
2023-02-03T10:13:41.251Z,7.25
2023-02-03T10:14:41.445Z,7.24
2023-02-03T10:15:41.437Z,7.23
2023-02-03T10:16:41.662Z,7.22
2023-02-03T10:17:41.644Z,7.20
2023-02-03T10:18:41.795Z,7.18
2023-02-03T10:19:41.892Z,7.18
2023-02-03T10:20:42.058Z,7.17
2023-02-03T10:21:42.244Z,7.18
2023-02-03T10:22:42.310Z,7.20
2023-02-03T10:23:42.401Z,7.21
2023-02-03T10:24:42.558Z,7.22
2023-02-03T10:25:42.798Z,7.21
2023-02-03T10:26:42.772Z,7.20
2023-02-03T10:27:43.019Z,7.21
2023-02-03T10:28:43.061Z,7.20
2023-02-03T10:29:43.179Z,7.19
2023-02-03T10:30:43.354Z,7.18
2023-02-03T10:31:43.451Z,7.18
2023-02-03T10:32:45.081Z,7.18
2023-02-03T10:33:43.635Z,7.17
2023-02-03T10:34:43.739Z,7.16
2023-02-03T10:35:43.840Z,7.16
2023-02-03T10:36:44.028Z,7.16
2023-02-03T10:37:44.196Z,7.16
2023-02-03T10:38:44.338Z,7.16
2023-02-03T10:39:44.327Z,7.15
2023-02-03T10:40:44.492Z,7.16
2023-02-03T10:41:44.570Z,7.17
2023-02-03T10:42:44.637Z,7.17
2023-02-03T10:43:44.752Z,7.16
2023-02-03T10:44:44.829Z,7.16
2023-02-03T10:45:44.990Z,7.15
2023-02-03T10:46:45.187Z,7.15
2023-02-03T10:47:45.194Z,7.16
2023-02-03T10:48:45.346Z,7.17
2023-02-03T10:49:45.505Z,7.19
2023-02-03T10:50:45.636Z,7.21
2023-02-03T10:51:45.891Z,7.22
2023-02-03T10:52:45.946Z,7.23
2023-02-03T10:53:45.943Z,7.22
2023-02-03T10:54:46.051Z,7.21
2023-02-03T10:55:46.151Z,7.21
2023-02-03T10:56:46.470Z,7.21
2023-02-03T10:57:46.345Z,7.22
2023-02-03T10:58:46.564Z,7.23
2023-02-03T10:59:46.602Z,7.24
2023-02-03T11:00:46.705Z,7.26
2023-02-03T11:01:46.913Z,7.27
2023-02-03T11:02:46.987Z,7.27
2023-02-03T11:03:47.103Z,7.27
2023-02-03T11:04:47.219Z,7.27
2023-02-03T11:05:47.270Z,7.28
2023-02-03T11:06:47.363Z,7.28
2023-02-03T11:07:47.503Z,7.30
2023-02-03T11:08:47.702Z,7.31
2023-02-03T11:09:47.750Z,7.31
2023-02-03T11:10:47.850Z,7.33
2023-02-03T11:11:48.120Z,7.34
2023-02-03T11:12:48.145Z,7.34
2023-02-03T11:13:48.212Z,7.36
2023-02-03T11:14:48.384Z,7.38
2023-02-03T11:15:48.438Z,7.38
2023-02-03T11:16:48.535Z,7.38
2023-02-03T11:17:48.629Z,7.38
2023-02-03T11:18:48.775Z,7.38
2023-02-03T11:19:48.992Z,7.40
2023-02-03T11:20:49.028Z,7.41
2023-02-03T11:21:49.185Z,7.41
2023-02-03T11:22:49.283Z,7.42
2023-02-03T11:23:49.459Z,7.42
2023-02-03T11:24:49.596Z,7.43
2023-02-03T11:25:49.698Z,7.44
2023-02-03T11:26:49.790Z,7.44
2023-02-03T11:27:49.976Z,7.43
2023-02-03T11:28:50.059Z,7.43
2023-02-03T11:29:50.215Z,7.45
2023-02-03T11:30:50.302Z,7.46
2023-02-03T11:31:50.484Z,7.47
2023-02-03T11:32:50.510Z,7.46
2023-02-03T11:33:50.619Z,7.45
2023-02-03T11:34:50.736Z,7.45
2023-02-03T11:35:50.837Z,7.45
2023-02-03T11:36:50.924Z,7.46
2023-02-03T11:37:51.203Z,7.46
2023-02-03T11:38:51.203Z,7.47
2023-02-03T11:39:51.332Z,7.47
2023-02-03T11:40:51.428Z,7.46
2023-02-03T11:41:51.522Z,7.46
2023-02-03T11:42:51.735Z,7.46
2023-02-03T11:43:51.779Z,7.47
2023-02-03T11:44:51.891Z,7.49
2023-02-03T11:45:51.988Z,7.51
2023-02-03T11:46:52.132Z,7.52
2023-02-03T11:47:52.263Z,7.52
2023-02-03T11:48:52.293Z,7.52
2023-02-03T11:49:52.553Z,7.52
2023-02-03T11:50:52.593Z,7.53
2023-02-03T11:51:52.692Z,7.54
2023-02-03T11:52:52.778Z,7.54
2023-02-03T11:53:57.170Z,7.55
2023-02-03T11:54:53.082Z,7.56
2023-02-03T11:55:53.081Z,7.57
2023-02-03T11:56:53.188Z,7.59
2023-02-03T11:57:53.297Z,7.60
2023-02-03T11:58:53.403Z,7.61
2023-02-03T11:59:53.513Z,7.62
2023-02-03T12:00:53.606Z,7.64
2023-02-03T12:01:53.698Z,7.66
2023-02-03T12:02:53.836Z,7.67
2023-02-03T12:03:53.953Z,7.68
2023-02-03T12:04:54.086Z,7.69
2023-02-03T12:05:54.176Z,7.69
2023-02-03T12:06:54.281Z,7.70
2023-02-03T12:07:54.379Z,7.72
2023-02-03T12:08:54.531Z,7.73
2023-02-03T12:09:54.626Z,7.73
2023-02-03T12:10:54.736Z,7.74
2023-02-03T12:11:54.824Z,7.74
2023-02-03T12:12:54.949Z,7.74
2023-02-03T12:13:55.718Z,7.75
2023-02-03T12:14:55.203Z,7.75
2023-02-03T12:15:55.329Z,7.75
2023-02-03T12:16:55.405Z,7.75
2023-02-03T12:17:55.588Z,7.75
2023-02-03T12:18:55.638Z,7.74
2023-02-03T12:19:55.724Z,7.75
2023-02-03T12:20:55.823Z,7.76
2023-02-03T12:21:55.979Z,7.76
2023-02-03T12:22:56.102Z,7.76
2023-02-03T12:23:56.188Z,7.76
2023-02-03T12:24:56.291Z,7.76
2023-02-03T12:25:56.416Z,7.77
2023-02-03T12:26:56.540Z,7.78
2023-02-03T12:27:56.674Z,7.78
2023-02-03T12:28:56.714Z,7.79
2023-02-03T12:29:56.892Z,7.80
2023-02-03T12:30:56.968Z,7.81
2023-02-03T12:31:57.096Z,7.82
2023-02-03T12:32:57.189Z,7.84
2023-02-03T12:33:57.289Z,7.85
2023-02-03T12:34:57.494Z,7.87
2023-02-03T12:35:57.550Z,7.88
2023-02-03T12:36:57.673Z,7.90
2023-02-03T12:37:57.770Z,7.90
2023-02-03T12:38:57.879Z,7.91
2023-02-03T12:39:58.129Z,7.93
2023-02-03T12:40:58.077Z,7.94
2023-02-03T12:41:58.177Z,7.93
2023-02-03T12:42:58.280Z,7.94
2023-02-03T12:43:58.366Z,7.95
2023-02-03T12:44:58.704Z,7.94
2023-02-03T12:45:58.724Z,7.93
2023-02-03T12:46:58.745Z,7.93
2023-02-03T12:47:58.887Z,7.93
2023-02-03T12:48:59.053Z,7.93
2023-02-03T12:49:59.239Z,7.95
2023-02-03T12:50:59.235Z,7.96
2023-02-03T12:51:59.420Z,7.97
2023-02-03T12:52:59.473Z,7.97
2023-02-03T12:53:59.622Z,7.97
2023-02-03T12:54:59.664Z,7.96
2023-02-03T12:55:59.776Z,7.96
2023-02-03T12:56:59.996Z,7.96
2023-02-03T12:58:00.084Z,7.97
2023-02-03T12:59:00.134Z,7.97
2023-02-03T13:00:00.245Z,7.97
2023-02-03T13:01:00.449Z,7.98
2023-02-03T13:02:00.571Z,7.98
2023-02-03T13:03:00.594Z,7.98
2023-02-03T13:04:00.678Z,7.99
2023-02-03T13:05:00.803Z,8.00
2023-02-03T13:06:00.927Z,8.01
2023-02-03T13:07:01.101Z,8.01
2023-02-03T13:08:01.156Z,8.02
2023-02-03T13:09:01.240Z,8.03
2023-02-03T13:10:01.351Z,8.04
2023-02-03T13:11:01.503Z,8.05
2023-02-03T13:12:01.588Z,8.05
2023-02-03T13:13:01.711Z,8.05
2023-02-03T13:14:01.801Z,8.06
2023-02-03T13:15:01.990Z,8.06
2023-02-03T13:16:02.102Z,8.06
2023-02-03T13:17:02.137Z,8.06
2023-02-03T13:18:02.319Z,8.07
2023-02-03T13:19:02.354Z,8.08
2023-02-03T13:20:02.440Z,8.09